createdAt,value
2018-03-02T00:00:47.181Z,29.80
2018-03-02T00:03:15.519Z,32.53
2018-03-02T00:05:43.863Z,33.13
2018-03-02T00:08:12.541Z,29.73
2018-03-02T00:10:40.885Z,34.17
2018-03-02T00:13:09.270Z,32.53
2018-03-02T00:15:37.634Z,27.10
2018-03-02T00:18:06.043Z,30.98
2018-03-02T00:20:35.171Z,31.30
2018-03-02T00:23:03.592Z,31.67
2018-03-02T00:25:31.948Z,31.15
2018-03-02T00:28:00.274Z,29.43
2018-03-02T00:30:28.680Z,34.90
2018-03-02T00:32:57.784Z,31.50
2018-03-02T00:35:26.914Z,26.90
2018-03-02T00:37:55.239Z,33.13
2018-03-02T00:40:24.389Z,31.10
2018-03-02T00:42:52.757Z,38.57
2018-03-02T00:45:21.096Z,33.53
2018-03-02T00:47:50.225Z,31.90
2018-03-02T00:50:18.633Z,36.08
2018-03-02T00:52:46.968Z,26.03
2018-03-02T00:55:15.318Z,32.80
2018-03-02T00:57:44.490Z,34.00
2018-03-02T01:00:12.865Z,39.28
2018-03-02T01:02:41.288Z,31.05
2018-03-02T01:05:10.459Z,33.05
2018-03-02T01:07:39.581Z,32.78
2018-03-02T01:10:07.952Z,36.83
2018-03-02T01:12:37.074Z,33.43
2018-03-02T01:15:05.424Z,39.67
2018-03-02T01:17:34.557Z,33.90
2018-03-02T01:20:02.935Z,35.78
2018-03-02T01:22:31.291Z,39.28
2018-03-02T01:24:59.663Z,39.60
2018-03-02T01:27:28.061Z,37.30
2018-03-02T01:29:56.413Z,33.55
2018-03-02T01:32:25.503Z,36.00
2018-03-02T01:34:54.622Z,36.93
2018-03-02T01:37:22.974Z,36.85
2018-03-02T01:39:52.201Z,36.00
2018-03-02T01:42:20.556Z,36.17
2018-03-02T01:44:48.934Z,45.38
2018-03-02T01:47:18.027Z,36.23
2018-03-02T01:49:47.164Z,39.80
2018-03-02T01:52:15.504Z,36.45
2018-03-02T01:54:43.834Z,42.80
2018-03-02T01:57:12.193Z,41.37
2018-03-02T01:59:40.542Z,36.90
2018-03-02T02:02:08.929Z,37.50
2018-03-02T02:04:37.292Z,39.22
2018-03-02T02:07:05.658Z,37.27
2018-03-02T02:09:34.812Z,37.93
2018-03-02T02:12:03.196Z,40.05
2018-03-02T02:14:31.551Z,41.72
2018-03-02T02:16:59.902Z,43.53
2018-03-02T02:19:28.242Z,33.03
2018-03-02T02:21:56.627Z,39.97
2018-03-02T02:24:25.008Z,40.33
2018-03-02T02:26:54.111Z,41.83
2018-03-02T02:29:23.248Z,42.78
2018-03-02T02:31:51.603Z,39.50
2018-03-02T02:34:19.976Z,41.60
2018-03-02T02:36:48.316Z,40.12
2018-03-02T02:39:16.699Z,41.83
2018-03-02T02:41:45.050Z,39.40
2018-03-02T02:44:13.410Z,38.03
2018-03-02T02:46:41.786Z,42.08
2018-03-02T02:49:10.123Z,42.10
2018-03-02T02:51:39.259Z,46.42
2018-03-02T02:54:07.656Z,41.22
2018-03-02T02:56:36.045Z,42.80
2018-03-02T02:59:04.433Z,39.92
2018-03-02T03:01:32.790Z,42.35
2018-03-02T03:04:01.177Z,44.70
2018-03-02T03:06:29.543Z,39.90
2018-03-02T03:08:57.954Z,43.63
2018-03-02T03:11:26.327Z,45.05
2018-03-02T03:13:54.686Z,45.20
2018-03-02T03:16:23.038Z,39.03
2018-03-02T03:18:51.367Z,41.88
2018-03-02T03:21:19.725Z,42.42
2018-03-02T03:23:48.103Z,46.28
2018-03-02T03:26:16.459Z,42.53
2018-03-02T03:28:44.839Z,43.17
2018-03-02T03:31:13.181Z,39.15
2018-03-02T03:33:41.510Z,43.10
2018-03-02T03:36:09.864Z,50.00
2018-03-02T03:38:38.192Z,43.90
2018-03-02T03:41:07.340Z,43.97
2018-03-02T03:43:35.736Z,45.08
2018-03-02T03:46:04.080Z,45.08
2018-03-02T03:48:32.451Z,42.53
2018-03-02T03:51:00.807Z,41.40
2018-03-02T03:53:29.956Z,38.97
2018-03-02T03:55:58.302Z,38.63
2018-03-02T03:58:26.636Z,45.33
2018-03-02T04:00:55.025Z,42.80
2018-03-02T04:03:24.152Z,41.45
2018-03-02T04:05:52.520Z,40.00
2018-03-02T04:08:20.868Z,45.22
2018-03-02T04:10:49.215Z,45.78
2018-03-02T04:13:17.571Z,41.55
2018-03-02T04:15:45.922Z,45.05
2018-03-02T04:18:14.284Z,43.80
2018-03-02T04:20:43.423Z,49.55
2018-03-02T04:23:11.802Z,41.17
2018-03-02T04:25:40.166Z,51.25
2018-03-02T04:28:08.572Z,47.58
2018-03-02T04:30:37.001Z,44.45
2018-03-02T04:33:06.152Z,45.10
2018-03-02T04:35:34.571Z,41.85
2018-03-02T04:38:03.692Z,36.65
2018-03-02T04:40:32.061Z,46.28
2018-03-02T04:43:00.411Z,41.88
2018-03-02T04:45:29.516Z,43.58
2018-03-02T04:47:58.672Z,46.45
2018-03-02T04:50:27.054Z,42.95
2018-03-02T04:52:55.427Z,45.90
2018-03-02T04:55:23.807Z,46.25
2018-03-02T04:57:52.149Z,47.78
2018-03-02T05:00:20.546Z,40.05
2018-03-02T05:02:48.925Z,52.40
2018-03-02T05:05:23.706Z,45.45
2018-03-02T05:07:52.402Z,48.53
2018-03-02T05:10:20.801Z,50.97
2018-03-02T05:12:49.186Z,49.78
2018-03-02T05:15:17.513Z,50.38
2018-03-02T05:17:46.691Z,53.65
2018-03-02T05:20:15.046Z,48.92
2018-03-02T05:22:43.450Z,42.22
2018-03-02T05:25:11.801Z,50.05
2018-03-02T05:27:40.159Z,53.78
2018-03-02T05:30:08.552Z,48.10
2018-03-02T05:32:36.903Z,54.28
2018-03-02T05:35:05.265Z,41.28
2018-03-02T05:37:34.396Z,50.63
2018-03-02T05:40:02.782Z,44.55
2018-03-02T05:42:31.130Z,51.17
2018-03-02T05:44:59.480Z,49.53
2018-03-02T05:47:27.851Z,47.62
2018-03-02T05:49:56.227Z,50.78
2018-03-02T05:52:24.601Z,50.83
2018-03-02T05:54:52.932Z,50.55
2018-03-02T05:57:21.287Z,40.25
2018-03-02T05:59:50.391Z,51.22
2018-03-02T06:02:18.790Z,53.08
2018-03-02T06:04:47.136Z,47.75
2018-03-02T06:07:16.277Z,50.17
2018-03-02T06:09:44.652Z,48.22
2018-03-02T06:12:13.028Z,53.97
2018-03-02T06:14:41.399Z,45.90
2018-03-02T06:17:09.735Z,47.30
2018-03-02T06:19:38.868Z,55.60
2018-03-02T06:22:07.229Z,51.08
2018-03-02T06:24:35.587Z,48.47
2018-03-02T06:27:04.735Z,49.83
2018-03-02T06:29:33.779Z,51.25
2018-03-02T06:32:02.179Z,55.53
2018-03-02T06:34:30.583Z,47.55
2018-03-02T06:36:58.930Z,53.22
2018-03-02T06:39:27.291Z,50.22
2018-03-02T06:41:55.734Z,53.90
2018-03-02T06:44:24.127Z,42.80
2018-03-02T06:46:53.304Z,50.70
2018-03-02T06:49:22.710Z,54.38
2018-03-02T06:51:51.046Z,47.15
2018-03-02T06:54:19.429Z,50.55
2018-03-02T06:56:48.401Z,48.13
2018-03-02T06:59:16.963Z,51.17
2018-03-02T07:01:45.371Z,44.45
2018-03-02T07:04:13.761Z,49.00
2018-03-02T07:06:43.444Z,43.00
2018-03-02T07:09:11.798Z,47.78
2018-03-02T07:11:40.194Z,49.63
2018-03-02T07:14:08.548Z,49.30
2018-03-02T07:16:37.114Z,45.75
2018-03-02T07:19:05.462Z,49.88
2018-03-02T07:21:33.804Z,47.90
2018-03-02T07:24:02.216Z,46.47
2018-03-02T07:26:30.576Z,48.10
2018-03-02T07:28:58.927Z,51.37
2018-03-02T07:31:27.383Z,50.53
2018-03-02T07:33:55.743Z,51.13
2018-03-02T07:36:24.877Z,52.80
2018-03-02T07:38:53.269Z,47.95
2018-03-02T07:41:21.629Z,55.25
2018-03-02T07:43:49.972Z,48.60
2018-03-02T07:46:19.120Z,52.60
2018-03-02T07:48:47.479Z,53.40
2018-03-02T07:51:15.891Z,53.03
2018-03-02T07:53:44.242Z,51.42
2018-03-02T07:56:12.588Z,52.47
2018-03-02T07:58:41.712Z,50.80
2018-03-02T08:01:10.130Z,53.77
2018-03-02T08:03:38.474Z,51.83
2018-03-02T08:06:06.830Z,55.17
2018-03-02T08:08:35.200Z,52.53
2018-03-02T08:11:03.553Z,47.78
2018-03-02T08:13:32.009Z,48.47
2018-03-02T08:16:00.354Z,44.38
2018-03-02T08:18:28.693Z,53.53
2018-03-02T08:20:57.856Z,49.57
2018-03-02T08:23:26.204Z,51.00
2018-03-02T08:25:54.548Z,55.60
2018-03-02T08:28:23.680Z,49.87
2018-03-02T08:30:52.036Z,51.87
2018-03-02T08:33:20.412Z,49.90
2018-03-02T08:35:49.508Z,53.03
2018-03-02T08:38:18.643Z,60.43
2018-03-02T08:40:46.992Z,47.27
2018-03-02T08:43:15.367Z,51.20
2018-03-02T08:45:43.731Z,55.70
2018-03-02T08:48:12.900Z,53.43
2018-03-02T08:50:41.233Z,52.70
2018-03-02T08:53:09.587Z,56.03
2018-03-02T08:55:38.728Z,57.27
2018-03-02T08:58:07.083Z,53.10
2018-03-02T09:00:35.466Z,50.73
2018-03-02T09:03:03.823Z,50.33
2018-03-02T09:05:32.239Z,58.23
2018-03-02T09:08:00.617Z,52.13
2018-03-02T09:10:29.146Z,53.93
2018-03-02T09:12:58.392Z,54.87
2018-03-02T09:15:26.752Z,58.13
2018-03-02T09:17:55.084Z,54.03
2018-03-02T09:20:23.465Z,57.23
2018-03-02T09:22:52.672Z,52.40
2018-03-02T09:25:21.803Z,59.83
2018-03-02T09:27:50.501Z,47.33
2018-03-02T09:30:18.844Z,56.73
2018-03-02T09:32:49.338Z,55.37
2018-03-02T09:35:17.830Z,55.53
2018-03-02T09:37:47.110Z,58.27
2018-03-02T09:40:15.553Z,54.67
2018-03-02T09:42:43.946Z,55.13
2018-03-02T09:45:12.303Z,55.90
2018-03-02T09:47:40.641Z,51.90
2018-03-02T09:50:10.861Z,58.13
2018-03-02T09:52:39.232Z,56.20
2018-03-02T09:55:07.600Z,53.80
2018-03-02T09:57:35.952Z,58.77
2018-03-02T10:00:04.297Z,62.27
2018-03-02T10:02:32.685Z,51.17
2018-03-02T10:05:01.033Z,54.60
2018-03-02T10:07:30.133Z,54.03
2018-03-02T10:09:59.287Z,56.83
2018-03-02T10:12:27.642Z,63.43
2018-03-02T10:14:56.004Z,54.10
2018-03-02T10:17:24.415Z,57.73
2018-03-02T10:19:52.827Z,55.43
2018-03-02T10:22:21.957Z,64.13
2018-03-02T10:24:50.416Z,53.87
2018-03-02T10:27:19.602Z,56.63
2018-03-02T10:29:48.710Z,59.57
2018-03-02T10:32:17.847Z,57.73
2018-03-02T10:34:46.308Z,56.07
2018-03-02T10:37:14.665Z,49.67
2018-03-02T10:39:43.038Z,55.17
2018-03-02T10:42:12.295Z,59.97
2018-03-02T10:44:40.675Z,58.50
2018-03-02T10:47:09.019Z,47.00
2018-03-02T10:49:37.561Z,51.40
2018-03-02T10:52:06.684Z,62.40
2018-03-02T10:54:35.056Z,56.43
2018-03-02T10:57:03.993Z,55.03
2018-03-02T10:59:32.363Z,52.87
2018-03-02T11:02:06.302Z,56.77
2018-03-02T11:04:36.439Z,59.57
2018-03-02T11:07:07.703Z,50.10
2018-03-02T11:09:40.689Z,52.13
2018-03-02T11:12:09.942Z,54.43
2018-03-02T11:14:38.362Z,55.07
2018-03-02T11:17:06.730Z,49.97
2018-03-02T11:19:35.890Z,59.03
2018-03-02T11:22:04.365Z,55.57
2018-03-02T11:24:32.796Z,57.27
2018-03-02T11:27:03.648Z,58.80
2018-03-02T11:29:34.505Z,54.57
2018-03-02T11:32:05.243Z,51.63
2018-03-02T11:34:34.416Z,52.67
2018-03-02T11:37:04.633Z,48.50
2018-03-02T11:39:34.041Z,55.43
2018-03-02T11:42:02.407Z,52.47
2018-03-02T11:44:30.786Z,53.27
2018-03-02T11:46:59.188Z,52.87
2018-03-02T11:49:27.544Z,51.30
2018-03-02T11:51:55.933Z,53.03
2018-03-02T11:54:24.317Z,53.40
2018-03-02T11:56:52.672Z,54.93
2018-03-02T11:59:21.964Z,55.87
2018-03-02T12:01:50.313Z,49.37
2018-03-02T12:04:18.758Z,55.33
2018-03-02T12:06:47.117Z,52.53
2018-03-02T12:09:15.495Z,48.70
2018-03-02T12:11:43.883Z,52.37
2018-03-02T12:14:12.245Z,54.00
2018-03-02T12:16:40.673Z,52.77
2018-03-02T12:19:09.027Z,51.40
2018-03-02T12:21:39.488Z,49.63
2018-03-02T12:24:07.851Z,55.73
2018-03-02T12:26:37.398Z,58.77
2018-03-02T12:29:05.815Z,57.63
2018-03-02T12:31:34.213Z,50.27
2018-03-02T12:34:02.550Z,52.83
2018-03-02T12:36:30.885Z,55.07
2018-03-02T12:38:59.336Z,55.53
2018-03-02T12:41:28.477Z,53.60
2018-03-02T12:43:57.605Z,50.70
2018-03-02T12:46:25.943Z,53.47
2018-03-02T12:48:55.165Z,56.73
2018-03-02T12:51:23.530Z,56.53
2018-03-02T12:53:51.922Z,49.53
2018-03-02T12:56:20.273Z,55.03
2018-03-02T12:58:49.909Z,50.37
2018-03-02T13:01:18.264Z,47.37
2018-03-02T13:03:47.376Z,53.00
2018-03-02T13:06:15.742Z,50.37
2018-03-02T13:08:46.449Z,53.70
2018-03-02T13:11:15.564Z,52.07
2018-03-02T13:13:47.234Z,51.50
2018-03-02T13:16:16.912Z,53.27
2018-03-02T13:18:45.405Z,58.47
2018-03-02T13:21:13.800Z,53.00
2018-03-02T13:23:42.138Z,52.57
2018-03-02T13:26:10.556Z,49.17
2018-03-02T13:28:47.807Z,50.73
2018-03-02T13:31:16.208Z,51.97
2018-03-02T13:33:57.458Z,51.43
2018-03-02T13:36:25.856Z,50.90
2018-03-02T13:39:06.658Z,55.43
2018-03-02T13:41:54.706Z,55.07
2018-03-02T13:44:23.832Z,50.40
2018-03-02T13:46:52.259Z,50.03
2018-03-02T13:49:32.406Z,52.73
2018-03-02T13:52:02.576Z,56.57
2018-03-02T13:54:31.000Z,50.10
2018-03-02T13:57:11.977Z,49.63
2018-03-02T13:59:41.110Z,54.97
2018-03-02T14:02:09.520Z,49.63
2018-03-02T14:07:37.246Z,50.77
2018-03-02T14:10:05.788Z,54.47
2018-03-02T14:12:34.146Z,50.70
2018-03-02T14:15:02.509Z,49.97
2018-03-02T14:17:30.887Z,48.83
2018-03-02T14:19:59.322Z,50.30
2018-03-02T14:22:28.457Z,46.27
2018-03-02T14:25:02.170Z,51.27
2018-03-02T14:27:31.009Z,53.43
2018-03-02T14:30:00.437Z,54.73
2018-03-02T14:32:28.852Z,51.00
2018-03-02T14:34:57.195Z,48.07
2018-03-02T14:37:25.704Z,50.80
2018-03-02T14:39:54.054Z,53.07
2018-03-02T14:42:22.432Z,47.07
2018-03-02T14:44:50.780Z,49.73
2018-03-02T14:47:19.942Z,53.83
2018-03-02T14:49:48.747Z,51.63
2018-03-02T14:52:18.495Z,50.17
2018-03-02T14:54:46.829Z,56.50
2018-03-02T14:57:15.189Z,53.70
2018-03-02T14:59:43.601Z,51.93
2018-03-02T15:02:11.996Z,51.57
2018-03-02T15:04:41.120Z,48.70
2018-03-02T15:07:09.655Z,55.23
2018-03-02T15:09:38.033Z,59.90
2018-03-02T15:12:06.379Z,53.53
2018-03-02T15:14:34.794Z,61.67
2018-03-02T15:17:04.022Z,51.70
2018-03-02T15:19:32.777Z,56.83
2018-03-02T15:22:02.026Z,54.13
2018-03-02T15:24:30.374Z,53.93
2018-03-02T15:26:58.817Z,56.10
2018-03-02T15:29:27.749Z,55.77
2018-03-02T15:31:56.170Z,56.17
2018-03-02T15:34:24.568Z,53.33
2018-03-02T15:36:53.556Z,53.80
2018-03-02T15:39:21.948Z,56.27
2018-03-02T15:41:51.051Z,53.30
2018-03-02T15:44:20.176Z,47.83
2018-03-02T15:46:49.329Z,52.83
2018-03-02T15:49:17.709Z,60.80
2018-03-02T15:51:46.056Z,55.60
2018-03-02T15:54:14.397Z,56.87
2018-03-02T15:56:42.766Z,47.70
2018-03-02T15:59:11.119Z,53.33
2018-03-02T16:01:40.239Z,55.33
2018-03-02T16:04:08.701Z,57.20
2018-03-02T16:06:39.643Z,59.50
2018-03-02T16:09:09.362Z,52.80
2018-03-02T16:11:37.714Z,54.27
2018-03-02T16:14:06.067Z,54.80
2018-03-02T16:16:34.467Z,55.23
2018-03-02T16:19:02.832Z,55.03
2018-03-02T16:21:31.197Z,51.53
2018-03-02T16:23:59.581Z,57.53
2018-03-02T16:26:27.960Z,56.50
2018-03-02T16:28:56.324Z,54.90
2018-03-02T16:31:24.701Z,50.47
2018-03-02T16:33:53.053Z,57.07
2018-03-02T16:36:21.438Z,54.40
2018-03-02T16:38:49.852Z,50.27
2018-03-02T16:41:18.208Z,57.20
2018-03-02T16:43:46.560Z,56.63
2018-03-02T16:46:14.946Z,51.03
2018-03-02T16:48:43.331Z,54.23
2018-03-02T16:51:11.663Z,55.17
2018-03-02T16:53:40.804Z,56.10
2018-03-02T16:56:09.177Z,53.37
2018-03-02T16:58:37.566Z,56.70
2018-03-02T17:01:05.967Z,57.30
2018-03-02T17:03:34.332Z,53.77
2018-03-02T17:06:02.773Z,59.33
2018-03-02T17:08:31.195Z,54.13
2018-03-02T17:10:59.552Z,57.97
2018-03-02T17:13:28.700Z,62.40
2018-03-02T17:15:57.091Z,55.20
2018-03-02T17:18:26.244Z,62.40
2018-03-02T17:20:54.618Z,53.53
2018-03-02T17:23:23.025Z,59.80
2018-03-02T17:25:51.379Z,54.10
2018-03-02T17:28:19.761Z,52.80
2018-03-02T17:30:48.187Z,54.30
2018-03-02T17:33:16.520Z,51.30
2018-03-02T17:35:44.860Z,61.33
2018-03-02T17:38:13.319Z,54.40
2018-03-02T17:40:43.467Z,53.93
2018-03-02T17:43:11.803Z,58.63
2018-03-02T17:45:40.938Z,56.93
2018-03-02T17:48:09.283Z,58.47
2018-03-02T17:50:38.467Z,55.80
2018-03-02T17:53:07.587Z,58.30
2018-03-02T17:55:35.929Z,54.20
2018-03-02T17:58:04.329Z,51.73
2018-03-02T18:00:33.453Z,52.30
2018-03-02T18:03:01.808Z,51.13
2018-03-02T18:05:30.962Z,55.47
2018-03-02T18:07:59.313Z,51.90
2018-03-02T18:10:27.694Z,52.00
2018-03-02T18:12:56.090Z,54.60
2018-03-02T18:15:24.486Z,48.07
2018-03-02T18:17:52.873Z,58.87
2018-03-02T18:20:21.210Z,72.47
2018-03-02T18:22:49.568Z,70.17
2018-03-02T18:25:17.947Z,63.67
2018-03-02T18:27:47.046Z,61.67
2018-03-02T18:30:15.496Z,59.43
2018-03-02T18:32:44.677Z,55.83
2018-03-02T18:35:13.056Z,49.10
2018-03-02T18:37:41.450Z,52.07
2018-03-02T18:40:10.577Z,49.33
2018-03-02T18:42:38.907Z,48.07
2018-03-02T18:45:08.093Z,51.00
2018-03-02T18:47:36.456Z,48.87
2018-03-02T18:50:04.849Z,44.70
2018-03-02T18:52:33.229Z,47.50
2018-03-02T18:55:01.560Z,43.77
2018-03-02T18:57:29.955Z,48.60
2018-03-02T18:59:58.356Z,46.80
2018-03-02T19:02:26.738Z,45.63
2018-03-02T19:04:55.086Z,46.43
2018-03-02T19:07:23.436Z,45.13
2018-03-02T19:09:51.818Z,46.13
2018-03-02T19:12:20.460Z,45.77
2018-03-02T19:14:48.795Z,40.83
2018-03-02T19:17:17.148Z,44.20
2018-03-02T19:19:45.533Z,42.63
2018-03-02T19:22:13.937Z,40.83
2018-03-02T19:24:42.279Z,43.93
2018-03-02T19:27:10.773Z,41.73
2018-03-02T19:29:39.220Z,40.10
2018-03-02T19:32:09.103Z,40.73
2018-03-02T19:34:39.592Z,38.90
2018-03-02T19:37:08.019Z,39.97
2018-03-02T19:39:36.484Z,37.67
2018-03-02T19:42:04.932Z,41.43
2018-03-02T19:44:33.409Z,42.67
2018-03-02T19:47:01.864Z,41.67
2018-03-02T19:49:30.421Z,41.43
2018-03-02T19:51:58.839Z,46.60
2018-03-02T19:54:27.279Z,39.80
2018-03-02T19:56:55.744Z,41.50
2018-03-02T19:59:25.178Z,38.20
2018-03-02T20:01:54.439Z,38.67
2018-03-02T20:04:22.855Z,36.13
2018-03-02T20:06:51.994Z,46.27
2018-03-02T20:09:20.418Z,39.00
2018-03-02T20:11:49.111Z,37.00
2018-03-02T20:14:18.331Z,36.63
2018-03-02T20:16:46.793Z,35.00
2018-03-02T20:19:15.386Z,35.73
2018-03-02T20:21:43.746Z,41.90
2018-03-02T20:24:12.156Z,40.40
2018-03-02T20:26:40.737Z,40.83
2018-03-02T20:29:09.106Z,40.73
2018-03-02T20:31:38.487Z,44.53
2018-03-02T20:34:07.604Z,38.33
2018-03-02T20:36:36.714Z,39.80
2018-03-02T20:39:05.153Z,40.47
2018-03-02T20:41:33.506Z,46.13
2018-03-02T20:44:01.894Z,39.33
2018-03-02T20:46:30.226Z,40.30
2018-03-02T20:48:58.623Z,38.37
2018-03-02T20:51:26.947Z,42.23
2018-03-02T20:53:55.291Z,43.27
2018-03-02T20:56:23.682Z,39.97
2018-03-02T20:58:52.025Z,35.93
2018-03-02T21:01:21.134Z,39.57
2018-03-02T21:03:49.506Z,44.10
2018-03-02T21:06:17.876Z,37.80
2018-03-02T21:08:46.702Z,39.33
2018-03-02T21:11:15.020Z,39.50
2018-03-02T21:13:43.353Z,36.50
2018-03-02T21:16:11.734Z,44.50
2018-03-02T21:18:40.135Z,37.93
2018-03-02T21:21:09.261Z,39.40
2018-03-02T21:23:37.592Z,36.87
2018-03-02T21:26:05.966Z,45.20
2018-03-02T21:28:34.305Z,42.27
2018-03-02T21:31:02.778Z,35.50
2018-03-02T21:33:32.561Z,38.00
2018-03-02T21:35:59.687Z,40.13
2018-03-02T21:38:28.041Z,42.40
2018-03-02T21:40:56.383Z,42.77
2018-03-02T21:43:24.768Z,41.57
2018-03-02T21:45:53.124Z,39.30
2018-03-02T21:48:22.254Z,42.27
2018-03-02T21:50:50.604Z,42.93
2018-03-02T21:53:18.974Z,42.40
2018-03-02T21:55:48.120Z,42.23
2018-03-02T21:58:17.154Z,40.80
2018-03-02T22:00:45.543Z,41.17
2018-03-02T22:03:16.383Z,43.03
2018-03-02T22:05:44.867Z,42.70
2018-03-02T22:08:13.267Z,42.33
2018-03-02T22:10:41.623Z,44.43
2018-03-02T22:13:09.974Z,35.10
2018-03-02T22:15:38.348Z,42.70
2018-03-02T22:18:06.693Z,35.43
2018-03-02T22:20:35.062Z,43.80
2018-03-02T22:23:03.430Z,41.83
2018-03-02T22:25:31.810Z,45.63
2018-03-02T22:28:00.167Z,42.07
2018-03-02T22:30:28.534Z,42.10
2018-03-02T22:32:57.674Z,38.97
2018-03-02T22:35:26.027Z,39.40
2018-03-02T22:37:54.399Z,39.67
2018-03-02T22:40:22.758Z,47.90
2018-03-02T22:42:51.912Z,42.80
2018-03-02T22:45:20.260Z,40.83
2018-03-02T22:47:48.592Z,48.50
2018-03-02T22:50:16.968Z,42.10
2018-03-02T22:52:45.318Z,41.10
2018-03-02T22:55:13.678Z,40.03
2018-03-02T22:57:42.027Z,38.73
2018-03-02T23:00:10.666Z,42.40
2018-03-02T23:02:39.554Z,40.83
2018-03-02T23:05:08.730Z,40.97
2018-03-02T23:07:37.101Z,42.83
2018-03-02T23:10:05.998Z,43.47
2018-03-02T23:12:34.396Z,40.00
2018-03-02T23:15:04.796Z,42.43
2018-03-02T23:17:33.761Z,38.53
2018-03-02T23:20:02.165Z,45.47
2018-03-02T23:22:30.594Z,43.57
2018-03-02T23:24:59.404Z,45.90
2018-03-02T23:27:28.516Z,47.77
2018-03-02T23:29:58.180Z,36.37
2018-03-02T23:32:26.506Z,44.37
2018-03-02T23:34:54.901Z,40.07
2018-03-02T23:37:23.240Z,44.17
2018-03-02T23:39:51.747Z,41.63
2018-03-02T23:42:22.560Z,34.67
2018-03-02T23:44:52.380Z,46.03
2018-03-02T23:47:20.917Z,42.10
2018-03-02T23:49:49.443Z,43.80
2018-03-02T23:52:18.006Z,39.43
2018-03-02T23:54:47.126Z,42.27
2018-03-02T23:57:15.734Z,46.90
2018-03-02T23:59:44.118Z,44.47
